Jachal, Argentina
Current Conditions -  °F | °C
As of 9:00 PM on Thursday 27 Nov 2014 (Local Time) from SCSE Reporting Station
Scattered Clouds Scattered Clouds  
Wind Chill: 57°   Ceiling: Unl
Heat Index: 57°   Visibility: 6mi
Dew Point: 52°   Wind: 7mph
Humidity: 82%   Direction: 310°NW
Pressure: 29.97"   Gusts: NA
Location:  30.25°S, 68.75°W
Report Text: SCSE 280000Z 31006KT 9999 FEW016 SCT250 14/11 Q1015
Loading
Personal Weather Stations






























Interactive Weather Map New forecast layout! Learn more

10-Day Weather Forecast

Advertisements
Track Severe Weather on mobile